sensor_id;sensor_type;location;lat;lon;timestamp;P1;durP1;ratioP1;P2;durP2;ratioP2
40252;SDS011;25972;51.854;4.534;2023-07-28T00:00:34;6.13;;;3.15;;
40252;SDS011;25972;51.854;4.534;2023-07-28T00:03:00;6.45;;;2.42;;
40252;SDS011;25972;51.854;4.534;2023-07-28T00:05:27;9.10;;;2.83;;
40252;SDS011;25972;51.854;4.534;2023-07-28T00:07:53;14.30;;;3.67;;
40252;SDS011;25972;51.854;4.534;2023-07-28T00:10:20;10.15;;;3.35;;
40252;SDS011;25972;51.854;4.534;2023-07-28T00:12:47;7.72;;;2.90;;
40252;SDS011;25972;51.854;4.534;2023-07-28T00:15:13;8.65;;;2.85;;
40252;SDS011;25972;51.854;4.534;2023-07-28T00:17:39;7.25;;;2.22;;
40252;SDS011;25972;51.854;4.534;2023-07-28T00:20:08;9.93;;;3.22;;
40252;SDS011;25972;51.854;4.534;2023-07-28T00:22:38;12.35;;;3.83;;
40252;SDS011;25972;51.854;4.534;2023-07-28T00:25:04;9.98;;;3.88;;
40252;SDS011;25972;51.854;4.534;2023-07-28T00:27:32;14.88;;;3.83;;
40252;SDS011;25972;51.854;4.534;2023-07-28T00:29:59;7.93;;;3.50;;
40252;SDS011;25972;51.854;4.534;2023-07-28T00:32:25;15.02;;;4.63;;
40252;SDS011;25972;51.854;4.534;2023-07-28T00:34:51;11.65;;;4.10;;
40252;SDS011;25972;51.854;4.534;2023-07-28T00:37:17;12.60;;;4.85;;
40252;SDS011;25972;51.854;4.534;2023-07-28T00:39:44;15.70;;;5.13;;
40252;SDS011;25972;51.854;4.534;2023-07-28T00:42:10;15.20;;;4.88;;
40252;SDS011;25972;51.854;4.534;2023-07-28T00:44:55;10.15;;;4.22;;
40252;SDS011;25972;51.854;4.534;2023-07-28T00:47:21;10.15;;;4.03;;
40252;SDS011;25972;51.854;4.534;2023-07-28T00:49:48;17.17;;;4.93;;
40252;SDS011;25972;51.854;4.534;2023-07-28T00:52:15;16.40;;;4.30;;
40252;SDS011;25972;51.854;4.534;2023-07-28T00:54:42;14.43;;;5.28;;
40252;SDS011;25972;51.854;4.534;2023-07-28T00:57:08;13.07;;;4.88;;
40252;SDS011;25972;51.854;4.534;2023-07-28T00:59:34;17.55;;;5.68;;
40252;SDS011;25972;51.854;4.534;2023-07-28T01:02:02;17.13;;;5.28;;
40252;SDS011;25972;51.854;4.534;2023-07-28T01:04:30;12.38;;;4.45;;
40252;SDS011;25972;51.854;4.534;2023-07-28T01:06:57;19.48;;;5.60;;
40252;SDS011;25972;51.854;4.534;2023-07-28T01:09:29;19.38;;;5.93;;
40252;SDS011;25972;51.854;4.534;2023-07-28T01:12:06;12.23;;;4.85;;
40252;SDS011;25972;51.854;4.534;2023-07-28T01:14:34;13.73;;;4.30;;
40252;SDS011;25972;51.854;4.534;2023-07-28T01:17:02;18.23;;;5.40;;
40252;SDS011;25972;51.854;4.534;2023-07-28T01:19:29;14.82;;;5.10;;
40252;SDS011;25972;51.854;4.534;2023-07-28T01:22:00;21.70;;;5.70;;
40252;SDS011;25972;51.854;4.534;2023-07-28T01:24:42;12.95;;;4.53;;
40252;SDS011;25972;51.854;4.534;2023-07-28T01:27:20;17.08;;;4.88;;
40252;SDS011;25972;51.854;4.534;2023-07-28T01:29:47;21.48;;;5.57;;
40252;SDS011;25972;51.854;4.534;2023-07-28T01:32:17;11.77;;;4.47;;
40252;SDS011;25972;51.854;4.534;2023-07-28T01:34:46;11.05;;;4.40;;
40252;SDS011;25972;51.854;4.534;2023-07-28T01:37:13;13.82;;;4.65;;
40252;SDS011;25972;51.854;4.534;2023-07-28T01:39:40;14.02;;;5.18;;
40252;SDS011;25972;51.854;4.534;2023-07-28T01:42:06;20.45;;;5.05;;
40252;SDS011;25972;51.854;4.534;2023-07-28T01:44:34;15.57;;;4.72;;
40252;SDS011;25972;51.854;4.534;2023-07-28T01:47:00;12.55;;;4.88;;
40252;SDS011;25972;51.854;4.534;2023-07-28T01:49:26;20.92;;;6.18;;
40252;SDS011;25972;51.854;4.534;2023-07-28T01:51:52;17.33;;;5.43;;
40252;SDS011;25972;51.854;4.534;2023-07-28T01:54:21;13.27;;;4.95;;
40252;SDS011;25972;51.854;4.534;2023-07-28T01:56:48;20.98;;;6.63;;
40252;SDS011;25972;51.854;4.534;2023-07-28T01:59:14;17.45;;;5.50;;
40252;SDS011;25972;51.854;4.534;2023-07-28T02:01:41;15.20;;;5.38;;
40252;SDS011;25972;51.854;4.534;2023-07-28T02:04:08;19.48;;;5.75;;
40252;SDS011;25972;51.854;4.534;2023-07-28T02:06:34;12.48;;;4.65;;
40252;SDS011;25972;51.854;4.534;2023-07-28T02:09:00;12.98;;;4.70;;
40252;SDS011;25972;51.854;4.534;2023-07-28T02:11:26;12.32;;;4.65;;
40252;SDS011;25972;51.854;4.534;2023-07-28T02:13:52;17.02;;;5.82;;
40252;SDS011;25972;51.854;4.534;2023-07-28T02:16:18;16.45;;;4.53;;
40252;SDS011;25972;51.854;4.534;2023-07-28T02:18:46;16.33;;;5.43;;
40252;SDS011;25972;51.854;4.534;2023-07-28T02:21:13;16.63;;;5.30;;
40252;SDS011;25972;51.854;4.534;2023-07-28T02:23:40;13.27;;;5.40;;
40252;SDS011;25972;51.854;4.534;2023-07-28T02:26:06;20.17;;;6.13;;
40252;SDS011;25972;51.854;4.534;2023-07-28T02:28:33;19.27;;;5.22;;
40252;SDS011;25972;51.854;4.534;2023-07-28T02:30:59;13.55;;;5.03;;
40252;SDS011;25972;51.854;4.534;2023-07-28T02:33:26;21.80;;;5.70;;
40252;SDS011;25972;51.854;4.534;2023-07-28T02:35:56;16.85;;;4.95;;
40252;SDS011;25972;51.854;4.534;2023-07-28T02:38:22;15.60;;;5.00;;
40252;SDS011;25972;51.854;4.534;2023-07-28T02:40:48;17.33;;;5.35;;
40252;SDS011;25972;51.854;4.534;2023-07-28T02:43:14;19.42;;;6.05;;
40252;SDS011;25972;51.854;4.534;2023-07-28T02:45:40;18.27;;;5.10;;
40252;SDS011;25972;51.854;4.534;2023-07-28T02:48:07;15.48;;;5.28;;
40252;SDS011;25972;51.854;4.534;2023-07-28T02:50:34;19.15;;;5.53;;
40252;SDS011;25972;51.854;4.534;2023-07-28T02:53:01;16.40;;;5.47;;
40252;SDS011;25972;51.854;4.534;2023-07-28T02:55:27;23.77;;;5.18;;
40252;SDS011;25972;51.854;4.534;2023-07-28T02:57:53;21.95;;;5.22;;
40252;SDS011;25972;51.854;4.534;2023-07-28T03:00:22;18.20;;;5.63;;
40252;SDS011;25972;51.854;4.534;2023-07-28T03:02:49;14.57;;;4.85;;
40252;SDS011;25972;51.854;4.534;2023-07-28T03:05:15;17.45;;;5.25;;
40252;SDS011;25972;51.854;4.534;2023-07-28T03:08:03;13.25;;;4.13;;
40252;SDS011;25972;51.854;4.534;2023-07-28T03:10:29;19.83;;;4.60;;
40252;SDS011;25972;51.854;4.534;2023-07-28T03:12:56;15.73;;;5.78;;
40252;SDS011;25972;51.854;4.534;2023-07-28T03:15:22;22.77;;;6.03;;
40252;SDS011;25972;51.854;4.534;2023-07-28T03:17:49;12.77;;;4.72;;
40252;SDS011;25972;51.854;4.534;2023-07-28T03:20:16;19.20;;;5.05;;
40252;SDS011;25972;51.854;4.534;2023-07-28T03:22:42;12.45;;;4.90;;
40252;SDS011;25972;51.854;4.534;2023-07-28T03:25:10;19.55;;;5.57;;
40252;SDS011;25972;51.854;4.534;2023-07-28T03:27:37;17.45;;;5.75;;
40252;SDS011;25972;51.854;4.534;2023-07-28T03:30:04;16.55;;;6.47;;
40252;SDS011;25972;51.854;4.534;2023-07-28T03:32:36;16.80;;;5.22;;
40252;SDS011;25972;51.854;4.534;2023-07-28T03:35:03;17.02;;;5.53;;
40252;SDS011;25972;51.854;4.534;2023-07-28T03:37:32;21.60;;;5.95;;
40252;SDS011;25972;51.854;4.534;2023-07-28T03:39:58;20.67;;;5.50;;
40252;SDS011;25972;51.854;4.534;2023-07-28T03:42:37;19.40;;;5.22;;
40252;SDS011;25972;51.854;4.534;2023-07-28T03:45:04;15.30;;;4.85;;
40252;SDS011;25972;51.854;4.534;2023-07-28T03:47:31;23.00;;;5.65;;
40252;SDS011;25972;51.854;4.534;2023-07-28T03:49:57;20.80;;;4.78;;
40252;SDS011;25972;51.854;4.534;2023-07-28T03:52:23;15.55;;;5.55;;
40252;SDS011;25972;51.854;4.534;2023-07-28T03:54:50;22.65;;;4.82;;
40252;SDS011;25972;51.854;4.534;2023-07-28T03:57:16;11.07;;;4.90;;
40252;SDS011;25972;51.854;4.534;2023-07-28T03:59:43;17.70;;;4.90;;
40252;SDS011;25972;51.854;4.534;2023-07-28T04:02:10;14.32;;;5.60;;
40252;SDS011;25972;51.854;4.534;2023-07-28T04:04:36;15.15;;;4.00;;
40252;SDS011;25972;51.854;4.534;2023-07-28T04:07:03;11.27;;;3.95;;
40252;SDS011;25972;51.854;4.534;2023-07-28T04:09:29;13.73;;;4.97;;
40252;SDS011;25972;51.854;4.534;2023-07-28T04:11:56;19.75;;;5.82;;
40252;SDS011;25972;51.854;4.534;2023-07-28T04:14:23;13.88;;;5.30;;
40252;SDS011;25972;51.854;4.534;2023-07-28T04:16:51;15.50;;;4.80;;
40252;SDS011;25972;51.854;4.534;2023-07-28T04:19:17;17.13;;;5.07;;
40252;SDS011;25972;51.854;4.534;2023-07-28T04:21:44;19.05;;;4.97;;
40252;SDS011;25972;51.854;4.534;2023-07-28T04:24:11;18.05;;;5.07;;
40252;SDS011;25972;51.854;4.534;2023-07-28T04:26:43;22.70;;;5.88;;
40252;SDS011;25972;51.854;4.534;2023-07-28T04:29:14;16.50;;;5.00;;
40252;SDS011;25972;51.854;4.534;2023-07-28T04:31:40;14.95;;;4.43;;
40252;SDS011;25972;51.854;4.534;2023-07-28T04:34:11;15.32;;;4.57;;
40252;SDS011;25972;51.854;4.534;2023-07-28T04:37:05;16.98;;;5.53;;
40252;SDS011;25972;51.854;4.534;2023-07-28T04:39:50;22.13;;;5.50;;
40252;SDS011;25972;51.854;4.534;2023-07-28T04:42:41;14.25;;;4.60;;
40252;SDS011;25972;51.854;4.534;2023-07-28T04:45:10;24.83;;;5.10;;
40252;SDS011;25972;51.854;4.534;2023-07-28T04:47:43;16.98;;;5.03;;
40252;SDS011;25972;51.854;4.534;2023-07-28T04:50:15;18.95;;;5.07;;
40252;SDS011;25972;51.854;4.534;2023-07-28T04:53:09;17.80;;;5.10;;
40252;SDS011;25972;51.854;4.534;2023-07-28T04:55:44;12.52;;;4.85;;
40252;SDS011;25972;51.854;4.534;2023-07-28T04:58:38;24.40;;;5.13;;
40252;SDS011;25972;51.854;4.534;2023-07-28T05:01:11;14.25;;;5.22;;
40252;SDS011;25972;51.854;4.534;2023-07-28T05:03:40;15.32;;;5.65;;
40252;SDS011;25972;51.854;4.534;2023-07-28T05:06:51;23.33;;;5.60;;
40252;SDS011;25972;51.854;4.534;2023-07-28T05:09:23;15.57;;;6.07;;
40252;SDS011;25972;51.854;4.534;2023-07-28T05:12:05;14.73;;;4.95;;
40252;SDS011;25972;51.854;4.534;2023-07-28T05:14:46;14.60;;;5.18;;
40252;SDS011;25972;51.854;4.534;2023-07-28T05:17:16;16.65;;;5.30;;
40252;SDS011;25972;51.854;4.534;2023-07-28T05:20:30;16.40;;;5.82;;
40252;SDS011;25972;51.854;4.534;2023-07-28T05:23:16;16.27;;;5.60;;
40252;SDS011;25972;51.854;4.534;2023-07-28T05:25:42;19.48;;;5.60;;
40252;SDS011;25972;51.854;4.534;2023-07-28T05:28:15;18.95;;;4.93;;
40252;SDS011;25972;51.854;4.534;2023-07-28T05:30:44;11.25;;;4.63;;
40252;SDS011;25972;51.854;4.534;2023-07-28T05:33:10;23.35;;;6.05;;
40252;SDS011;25972;51.854;4.534;2023-07-28T05:35:56;19.45;;;5.32;;
40252;SDS011;25972;51.854;4.534;2023-07-28T05:38:29;20.25;;;5.53;;
40252;SDS011;25972;51.854;4.534;2023-07-28T05:40:59;19.35;;;5.38;;
40252;SDS011;25972;51.854;4.534;2023-07-28T05:43:27;15.65;;;5.00;;
40252;SDS011;25972;51.854;4.534;2023-07-28T05:45:56;20.08;;;5.82;;
40252;SDS011;25972;51.854;4.534;2023-07-28T05:48:23;19.77;;;5.15;;
40252;SDS011;25972;51.854;4.534;2023-07-28T05:50:49;17.58;;;4.97;;
40252;SDS011;25972;51.854;4.534;2023-07-28T05:53:17;17.80;;;4.93;;
40252;SDS011;25972;51.854;4.534;2023-07-28T05:55:51;23.65;;;5.15;;
40252;SDS011;25972;51.854;4.534;2023-07-28T05:58:17;28.40;;;5.88;;
40252;SDS011;25972;51.854;4.534;2023-07-28T06:00:47;19.17;;;4.85;;
40252;SDS011;25972;51.854;4.534;2023-07-28T06:03:33;15.40;;;4.22;;
40252;SDS011;25972;51.854;4.534;2023-07-28T06:06:09;15.25;;;5.20;;
40252;SDS011;25972;51.854;4.534;2023-07-28T06:08:35;17.63;;;4.93;;
40252;SDS011;25972;51.854;4.534;2023-07-28T06:11:04;14.65;;;4.90;;
40252;SDS011;25972;51.854;4.534;2023-07-28T06:13:31;16.88;;;5.03;;
40252;SDS011;25972;51.854;4.534;2023-07-28T06:16:00;15.73;;;3.60;;
40252;SDS011;25972;51.854;4.534;2023-07-28T06:18:26;10.35;;;4.25;;
40252;SDS011;25972;51.854;4.534;2023-07-28T06:21:09;15.25;;;4.03;;
40252;SDS011;25972;51.854;4.534;2023-07-28T06:23:35;14.68;;;4.63;;
40252;SDS011;25972;51.854;4.534;2023-07-28T06:26:01;10.88;;;4.82;;
40252;SDS011;25972;51.854;4.534;2023-07-28T06:28:30;17.42;;;4.65;;
40252;SDS011;25972;51.854;4.534;2023-07-28T06:30:57;22.10;;;4.65;;
40252;SDS011;25972;51.854;4.534;2023-07-28T06:33:25;11.82;;;4.63;;
40252;SDS011;25972;51.854;4.534;2023-07-28T06:35:53;16.95;;;4.85;;
40252;SDS011;25972;51.854;4.534;2023-07-28T06:38:20;8.63;;;4.05;;
40252;SDS011;25972;51.854;4.534;2023-07-28T06:40:46;8.20;;;2.17;;
40252;SDS011;25972;51.854;4.534;2023-07-28T06:43:14;14.02;;;4.07;;
40252;SDS011;25972;51.854;4.534;2023-07-28T06:45:43;13.57;;;4.07;;
40252;SDS011;25972;51.854;4.534;2023-07-28T06:48:09;12.50;;;4.45;;
40252;SDS011;25972;51.854;4.534;2023-07-28T06:50:35;16.33;;;4.15;;
40252;SDS011;25972;51.854;4.534;2023-07-28T06:53:01;10.93;;;4.03;;
40252;SDS011;25972;51.854;4.534;2023-07-28T06:55:28;16.35;;;3.83;;
40252;SDS011;25972;51.854;4.534;2023-07-28T06:57:54;11.52;;;3.88;;
40252;SDS011;25972;51.854;4.534;2023-07-28T07:00:23;11.75;;;4.25;;
40252;SDS011;25972;51.854;4.534;2023-07-28T07:02:49;10.20;;;3.88;;
40252;SDS011;25972;51.854;4.534;2023-07-28T07:05:15;14.50;;;4.55;;
40252;SDS011;25972;51.854;4.534;2023-07-28T07:07:41;13.07;;;4.40;;
40252;SDS011;25972;51.854;4.534;2023-07-28T07:10:08;14.23;;;4.68;;
40252;SDS011;25972;51.854;4.534;2023-07-28T07:12:35;17.77;;;4.30;;
40252;SDS011;25972;51.854;4.534;2023-07-28T07:15:02;14.25;;;5.15;;
40252;SDS011;25972;51.854;4.534;2023-07-28T07:17:29;16.40;;;4.95;;
40252;SDS011;25972;51.854;4.534;2023-07-28T07:19:56;12.63;;;4.18;;
40252;SDS011;25972;51.854;4.534;2023-07-28T07:22:22;11.52;;;4.22;;
40252;SDS011;25972;51.854;4.534;2023-07-28T07:24:49;9.32;;;3.42;;
40252;SDS011;25972;51.854;4.534;2023-07-28T07:27:15;10.73;;;3.78;;
40252;SDS011;25972;51.854;4.534;2023-07-28T07:29:41;9.15;;;4.05;;
40252;SDS011;25972;51.854;4.534;2023-07-28T07:32:08;17.48;;;5.05;;
40252;SDS011;25972;51.854;4.534;2023-07-28T07:34:38;10.23;;;4.00;;
40252;SDS011;25972;51.854;4.534;2023-07-28T07:37:04;12.55;;;4.78;;
40252;SDS011;25972;51.854;4.534;2023-07-28T07:39:34;13.95;;;4.35;;
40252;SDS011;25972;51.854;4.534;2023-07-28T07:42:01;12.00;;;4.22;;
40252;SDS011;25972;51.854;4.534;2023-07-28T07:44:27;15.75;;;5.30;;
40252;SDS011;25972;51.854;4.534;2023-07-28T07:46:58;11.32;;;4.25;;
40252;SDS011;25972;51.854;4.534;2023-07-28T07:49:26;17.17;;;4.63;;
40252;SDS011;25972;51.854;4.534;2023-07-28T07:51:53;15.40;;;5.00;;
40252;SDS011;25972;51.854;4.534;2023-07-28T07:54:19;12.07;;;4.63;;
40252;SDS011;25972;51.854;4.534;2023-07-28T07:56:46;14.65;;;4.50;;
40252;SDS011;25972;51.854;4.534;2023-07-28T07:59:12;13.60;;;4.65;;
40252;SDS011;25972;51.854;4.534;2023-07-28T08:01:39;16.63;;;4.53;;
40252;SDS011;25972;51.854;4.534;2023-07-28T08:04:07;14.23;;;4.55;;
40252;SDS011;25972;51.854;4.534;2023-07-28T08:06:33;11.23;;;4.03;;
40252;SDS011;25972;51.854;4.534;2023-07-28T08:09:02;29.45;;;5.95;;
40252;SDS011;25972;51.854;4.534;2023-07-28T08:11:28;20.55;;;5.63;;
40252;SDS011;25972;51.854;4.534;2023-07-28T08:13:57;12.32;;;5.00;;
40252;SDS011;25972;51.854;4.534;2023-07-28T08:16:23;12.60;;;5.38;;
40252;SDS011;25972;51.854;4.534;2023-07-28T08:18:50;14.48;;;5.55;;
40252;SDS011;25972;51.854;4.534;2023-07-28T08:21:16;15.23;;;4.18;;
40252;SDS011;25972;51.854;4.534;2023-07-28T08:23:42;11.43;;;4.55;;
40252;SDS011;25972;51.854;4.534;2023-07-28T08:26:10;13.75;;;4.40;;
40252;SDS011;25972;51.854;4.534;2023-07-28T08:28:36;11.65;;;4.50;;
40252;SDS011;25972;51.854;4.534;2023-07-28T08:31:02;13.63;;;4.93;;
40252;SDS011;25972;51.854;4.534;2023-07-28T08:33:31;14.98;;;4.53;;
40252;SDS011;25972;51.854;4.534;2023-07-28T08:35:57;11.48;;;4.50;;
40252;SDS011;25972;51.854;4.534;2023-07-28T08:38:23;14.18;;;5.55;;
40252;SDS011;25972;51.854;4.534;2023-07-28T08:40:50;10.32;;;4.18;;
40252;SDS011;25972;51.854;4.534;2023-07-28T08:43:17;14.75;;;4.72;;
40252;SDS011;25972;51.854;4.534;2023-07-28T08:45:44;12.20;;;4.50;;
40252;SDS011;25972;51.854;4.534;2023-07-28T08:48:10;12.48;;;5.40;;
40252;SDS011;25972;51.854;4.534;2023-07-28T08:50:36;12.45;;;4.22;;
40252;SDS011;25972;51.854;4.534;2023-07-28T08:53:03;9.45;;;4.43;;
40252;SDS011;25972;51.854;4.534;2023-07-28T08:55:30;12.38;;;4.15;;
40252;SDS011;25972;51.854;4.534;2023-07-28T08:57:56;8.20;;;2.80;;
40252;SDS011;25972;51.854;4.534;2023-07-28T09:00:41;8.75;;;3.95;;
40252;SDS011;25972;51.854;4.534;2023-07-28T09:03:08;10.07;;;4.20;;
40252;SDS011;25972;51.854;4.534;2023-07-28T09:05:34;13.30;;;4.03;;
40252;SDS011;25972;51.854;4.534;2023-07-28T09:08:00;12.27;;;3.83;;
40252;SDS011;25972;51.854;4.534;2023-07-28T09:10:27;9.43;;;4.20;;
40252;SDS011;25972;51.854;4.534;2023-07-28T09:13:08;10.48;;;4.20;;
40252;SDS011;25972;51.854;4.534;2023-07-28T09:15:36;10.38;;;3.58;;
40252;SDS011;25972;51.854;4.534;2023-07-28T09:18:03;12.27;;;3.65;;
40252;SDS011;25972;51.854;4.534;2023-07-28T09:20:33;14.38;;;4.00;;
40252;SDS011;25972;51.854;4.534;2023-07-28T09:23:01;17.65;;;4.57;;
40252;SDS011;25972;51.854;4.534;2023-07-28T09:25:28;14.07;;;3.75;;
40252;SDS011;25972;51.854;4.534;2023-07-28T09:27:55;10.27;;;4.13;;
40252;SDS011;25972;51.854;4.534;2023-07-28T09:30:21;12.38;;;4.13;;
40252;SDS011;25972;51.854;4.534;2023-07-28T09:32:48;10.35;;;3.88;;
40252;SDS011;25972;51.854;4.534;2023-07-28T09:35:17;8.75;;;2.97;;
40252;SDS011;25972;51.854;4.534;2023-07-28T09:37:45;14.38;;;3.97;;
40252;SDS011;25972;51.854;4.534;2023-07-28T09:40:13;9.50;;;3.40;;
40252;SDS011;25972;51.854;4.534;2023-07-28T09:42:42;9.98;;;3.78;;
40252;SDS011;25972;51.854;4.534;2023-07-28T09:45:10;12.10;;;3.45;;
40252;SDS011;25972;51.854;4.534;2023-07-28T09:47:37;6.78;;;3.00;;
40252;SDS011;25972;51.854;4.534;2023-07-28T09:50:03;6.70;;;2.88;;
40252;SDS011;25972;51.854;4.534;2023-07-28T09:52:34;9.48;;;3.40;;
40252;SDS011;25972;51.854;4.534;2023-07-28T09:55:04;10.43;;;3.88;;
40252;SDS011;25972;51.854;4.534;2023-07-28T09:57:35;12.02;;;3.90;;
40252;SDS011;25972;51.854;4.534;2023-07-28T10:00:07;4.93;;;2.38;;
40252;SDS011;25972;51.854;4.534;2023-07-28T10:02:38;12.68;;;3.80;;
40252;SDS011;25972;51.854;4.534;2023-07-28T10:05:05;7.15;;;2.95;;
40252;SDS011;25972;51.854;4.534;2023-07-28T10:07:34;9.63;;;3.38;;
40252;SDS011;25972;51.854;4.534;2023-07-28T10:10:01;7.63;;;3.22;;
40252;SDS011;25972;51.854;4.534;2023-07-28T10:12:36;6.22;;;2.80;;
40252;SDS011;25972;51.854;4.534;2023-07-28T10:15:07;7.40;;;2.95;;
40252;SDS011;25972;51.854;4.534;2023-07-28T10:17:36;5.85;;;3.15;;
40252;SDS011;25972;51.854;4.534;2023-07-28T10:20:03;9.02;;;3.83;;
40252;SDS011;25972;51.854;4.534;2023-07-28T10:22:35;9.82;;;3.50;;
40252;SDS011;25972;51.854;4.534;2023-07-28T10:25:09;7.78;;;2.80;;
40252;SDS011;25972;51.854;4.534;2023-07-28T10:27:36;7.00;;;3.33;;
40252;SDS011;25972;51.854;4.534;2023-07-28T10:30:04;7.65;;;3.63;;
40252;SDS011;25972;51.854;4.534;2023-07-28T10:32:37;11.15;;;4.65;;
40252;SDS011;25972;51.854;4.534;2023-07-28T10:35:06;11.43;;;4.75;;
40252;SDS011;25972;51.854;4.534;2023-07-28T10:37:34;8.70;;;4.53;;
40252;SDS011;25972;51.854;4.534;2023-07-28T10:42:53;12.70;;;5.70;;
40252;SDS011;25972;51.854;4.534;2023-07-28T10:45:21;12.00;;;6.03;;
40252;SDS011;25972;51.854;4.534;2023-07-28T10:47:48;15.40;;;8.27;;
40252;SDS011;25972;51.854;4.534;2023-07-28T10:50:15;16.88;;;6.57;;
40252;SDS011;25972;51.854;4.534;2023-07-28T10:52:43;14.65;;;8.20;;
40252;SDS011;25972;51.854;4.534;2023-07-28T10:55:13;15.45;;;7.57;;
40252;SDS011;25972;51.854;4.534;2023-07-28T10:57:40;15.15;;;7.80;;
40252;SDS011;25972;51.854;4.534;2023-07-28T11:00:08;10.38;;;5.53;;
40252;SDS011;25972;51.854;4.534;2023-07-28T11:02:37;11.07;;;5.30;;
40252;SDS011;25972;51.854;4.534;2023-07-28T11:05:05;10.02;;;5.43;;
40252;SDS011;25972;51.854;4.534;2023-07-28T11:07:35;10.82;;;4.40;;
40252;SDS011;25972;51.854;4.534;2023-07-28T11:10:03;8.50;;;4.82;;
40252;SDS011;25972;51.854;4.534;2023-07-28T11:12:31;9.05;;;4.72;;
40252;SDS011;25972;51.854;4.534;2023-07-28T11:14:58;12.02;;;5.30;;
40252;SDS011;25972;51.854;4.534;2023-07-28T11:17:24;11.20;;;5.03;;
40252;SDS011;25972;51.854;4.534;2023-07-28T11:19:52;10.50;;;3.70;;
40252;SDS011;25972;51.854;4.534;2023-07-28T11:22:19;8.15;;;4.20;;
40252;SDS011;25972;51.854;4.534;2023-07-28T11:24:45;10.80;;;5.20;;
40252;SDS011;25972;51.854;4.534;2023-07-28T11:27:16;9.57;;;5.30;;
40252;SDS011;25972;51.854;4.534;2023-07-28T11:29:43;10.10;;;5.18;;
40252;SDS011;25972;51.854;4.534;2023-07-28T11:32:09;9.40;;;5.78;;
40252;SDS011;25972;51.854;4.534;2023-07-28T11:34:35;13.63;;;6.65;;
40252;SDS011;25972;51.854;4.534;2023-07-28T11:37:02;10.40;;;5.40;;
40252;SDS011;25972;51.854;4.534;2023-07-28T11:39:30;14.27;;;7.57;;
40252;SDS011;25972;51.854;4.534;2023-07-28T11:41:58;10.27;;;5.97;;
40252;SDS011;25972;51.854;4.534;2023-07-28T11:44:26;15.48;;;7.57;;
40252;SDS011;25972;51.854;4.534;2023-07-28T11:46:53;11.05;;;6.13;;
40252;SDS011;25972;51.854;4.534;2023-07-28T11:49:20;14.25;;;7.90;;
40252;SDS011;25972;51.854;4.534;2023-07-28T11:51:50;14.80;;;8.20;;
40252;SDS011;25972;51.854;4.534;2023-07-28T11:54:17;16.02;;;8.18;;
40252;SDS011;25972;51.854;4.534;2023-07-28T11:56:47;17.40;;;8.55;;
40252;SDS011;25972;51.854;4.534;2023-07-28T11:59:15;16.92;;;7.95;;
40252;SDS011;25972;51.854;4.534;2023-07-28T12:01:53;12.45;;;6.70;;
40252;SDS011;25972;51.854;4.534;2023-07-28T12:04:21;11.38;;;6.30;;
40252;SDS011;25972;51.854;4.534;2023-07-28T12:07:05;14.70;;;7.75;;
40252;SDS011;25972;51.854;4.534;2023-07-28T12:09:33;19.33;;;8.68;;
40252;SDS011;25972;51.854;4.534;2023-07-28T12:12:19;16.45;;;8.48;;
40252;SDS011;25972;51.854;4.534;2023-07-28T12:14:47;14.82;;;7.70;;
40252;SDS011;25972;51.854;4.534;2023-07-28T12:17:15;12.35;;;6.90;;
40252;SDS011;25972;51.854;4.534;2023-07-28T12:19:55;14.48;;;6.75;;
40252;SDS011;25972;51.854;4.534;2023-07-28T12:22:23;13.75;;;7.13;;
40252;SDS011;25972;51.854;4.534;2023-07-28T12:24:49;17.77;;;8.77;;
40252;SDS011;25972;51.854;4.534;2023-07-28T12:27:15;15.38;;;8.45;;
40252;SDS011;25972;51.854;4.534;2023-07-28T12:29:41;16.13;;;9.13;;
40252;SDS011;25972;51.854;4.534;2023-07-28T12:32:07;17.90;;;9.95;;
40252;SDS011;25972;51.854;4.534;2023-07-28T12:34:35;15.07;;;9.10;;
40252;SDS011;25972;51.854;4.534;2023-07-28T12:37:01;16.60;;;8.82;;
40252;SDS011;25972;51.854;4.534;2023-07-28T12:39:27;18.45;;;9.55;;
40252;SDS011;25972;51.854;4.534;2023-07-28T12:41:54;19.75;;;9.45;;
40252;SDS011;25972;51.854;4.534;2023-07-28T12:44:20;16.48;;;8.57;;
40252;SDS011;25972;51.854;4.534;2023-07-28T12:46:47;16.58;;;8.48;;
40252;SDS011;25972;51.854;4.534;2023-07-28T12:49:13;16.08;;;9.25;;
40252;SDS011;25972;51.854;4.534;2023-07-28T12:51:41;14.93;;;8.48;;
40252;SDS011;25972;51.854;4.534;2023-07-28T12:54:07;14.55;;;8.82;;
40252;SDS011;25972;51.854;4.534;2023-07-28T12:56:34;17.60;;;9.07;;
40252;SDS011;25972;51.854;4.534;2023-07-28T12:59:00;19.77;;;9.90;;
40252;SDS011;25972;51.854;4.534;2023-07-28T13:01:27;21.63;;;11.40;;
40252;SDS011;25972;51.854;4.534;2023-07-28T13:03:53;15.35;;;9.75;;
40252;SDS011;25972;51.854;4.534;2023-07-28T13:06:19;20.05;;;11.18;;
40252;SDS011;25972;51.854;4.534;2023-07-28T13:08:46;17.25;;;9.30;;
40252;SDS011;25972;51.854;4.534;2023-07-28T13:11:13;22.92;;;11.15;;
40252;SDS011;25972;51.854;4.534;2023-07-28T13:13:39;20.00;;;10.93;;
40252;SDS011;25972;51.854;4.534;2023-07-28T13:16:06;22.70;;;10.57;;
40252;SDS011;25972;51.854;4.534;2023-07-28T13:18:33;23.05;;;10.48;;
40252;SDS011;25972;51.854;4.534;2023-07-28T13:20:59;17.75;;;9.60;;
40252;SDS011;25972;51.854;4.534;2023-07-28T13:23:26;15.63;;;9.50;;
40252;SDS011;25972;51.854;4.534;2023-07-28T13:25:54;16.00;;;8.88;;
40252;SDS011;25972;51.854;4.534;2023-07-28T13:28:20;14.98;;;9.60;;
40252;SDS011;25972;51.854;4.534;2023-07-28T13:30:46;17.27;;;9.25;;
40252;SDS011;25972;51.854;4.534;2023-07-28T13:33:12;14.38;;;7.25;;
40252;SDS011;25972;51.854;4.534;2023-07-28T13:35:38;14.65;;;6.75;;
40252;SDS011;25972;51.854;4.534;2023-07-28T13:38:05;11.32;;;6.40;;
40252;SDS011;25972;51.854;4.534;2023-07-28T13:40:31;14.48;;;8.35;;
40252;SDS011;25972;51.854;4.534;2023-07-28T13:42:59;15.98;;;7.97;;
40252;SDS011;25972;51.854;4.534;2023-07-28T13:45:25;15.32;;;7.75;;
40252;SDS011;25972;51.854;4.534;2023-07-28T13:47:51;14.20;;;7.60;;
40252;SDS011;25972;51.854;4.534;2023-07-28T13:50:18;15.48;;;8.50;;
40252;SDS011;25972;51.854;4.534;2023-07-28T13:52:44;13.88;;;7.15;;
40252;SDS011;25972;51.854;4.534;2023-07-28T13:55:10;12.18;;;6.47;;
40252;SDS011;25972;51.854;4.534;2023-07-28T13:57:36;10.00;;;6.30;;
40252;SDS011;25972;51.854;4.534;2023-07-28T14:00:05;9.45;;;5.50;;
40252;SDS011;25972;51.854;4.534;2023-07-28T14:02:34;11.73;;;5.88;;
40252;SDS011;25972;51.854;4.534;2023-07-28T14:05:05;10.20;;;5.93;;
40252;SDS011;25972;51.854;4.534;2023-07-28T14:07:32;11.43;;;6.78;;
40252;SDS011;25972;51.854;4.534;2023-07-28T14:10:00;10.68;;;5.82;;
40252;SDS011;25972;51.854;4.534;2023-07-28T14:12:27;11.48;;;5.95;;
40252;SDS011;25972;51.854;4.534;2023-07-28T14:14:53;9.38;;;4.88;;
40252;SDS011;25972;51.854;4.534;2023-07-28T14:17:20;10.43;;;5.07;;
40252;SDS011;25972;51.854;4.534;2023-07-28T14:19:47;7.32;;;3.92;;
40252;SDS011;25972;51.854;4.534;2023-07-28T14:22:13;9.85;;;4.82;;
40252;SDS011;25972;51.854;4.534;2023-07-28T14:24:39;9.52;;;5.00;;
40252;SDS011;25972;51.854;4.534;2023-07-28T14:27:06;11.85;;;6.22;;
40252;SDS011;25972;51.854;4.534;2023-07-28T14:29:32;9.65;;;5.80;;
40252;SDS011;25972;51.854;4.534;2023-07-28T14:31:58;9.98;;;5.68;;
40252;SDS011;25972;51.854;4.534;2023-07-28T14:34:26;11.23;;;5.20;;
40252;SDS011;25972;51.854;4.534;2023-07-28T14:36:52;11.23;;;6.05;;
40252;SDS011;25972;51.854;4.534;2023-07-28T14:39:18;11.25;;;6.22;;
40252;SDS011;25972;51.854;4.534;2023-07-28T14:41:44;10.05;;;5.75;;
40252;SDS011;25972;51.854;4.534;2023-07-28T14:44:10;9.38;;;4.90;;
40252;SDS011;25972;51.854;4.534;2023-07-28T14:46:36;9.15;;;4.68;;